Time,TemperatureF,DewpointF,PressureIn,WindDirection,WindDirectionDegrees,WindSpeedMPH,WindSpeedGustMPH,Humidity,HourlyPrecipIn,Conditions,Clouds,dailyrainin,SoftwareType,DateUTC
2013-05-06 00:11:00,53.9,43.0,30.39,East,90,0.0,5.0,68,0.00,,,0.00,weatherlink.com 1.10,2013-05-06 04:11:00,
2013-05-06 00:26:00,53.6,44.0,30.38,NNE,27,0.0,6.0,69,0.00,,,0.00,weatherlink.com 1.10,2013-05-06 04:26:00,
2013-05-06 00:41:00,53.3,44.0,30.38,NE,35,3.0,7.0,70,0.00,,,0.00,weatherlink.com 1.10,2013-05-06 04:41:00,
2013-05-06 00:56:00,52.8,44.0,30.39,NE,38,0.0,5.0,71,0.00,,,0.00,weatherlink.com 1.10,2013-05-06 04:56:00,
2013-05-06 01:11:00,52.5,44.0,30.38,ENE,75,0.0,4.0,72,0.00,,,0.00,weatherlink.com 1.10,2013-05-06 05:11:00,
2013-05-06 01:26:00,52.1,44.0,30.38,NE,43,1.0,5.0,73,0.00,,,0.00,weatherlink.com 1.10,2013-05-06 05:26:00,
2013-05-06 01:41:00,51.8,44.0,30.38,NE,49,0.0,4.0,74,0.00,,,0.00,weatherlink.com 1.10,2013-05-06 05:41:00,
2013-05-06 01:56:00,51.6,44.0,30.37,NE,34,1.0,2.0,75,0.00,,,0.00,weatherlink.com 1.10,2013-05-06 05:56:00,
2013-05-06 02:11:00,51.3,44.0,30.37,ENE,65,0.0,3.0,76,0.00,,,0.00,weatherlink.com 1.10,2013-05-06 06:11:00,
2013-05-06 02:26:00,51.0,44.0,30.37,NNE,31,0.0,2.0,77,0.00,,,0.00,weatherlink.com 1.10,2013-05-06 06:26:00,
2013-05-06 02:41:00,50.4,44.0,30.37,NE,41,0.0,0.0,78,0.00,,,0.00,weatherlink.com 1.10,2013-05-06 06:41:00,
2013-05-06 02:56:00,50.1,44.0,30.37,NE,41,1.0,6.0,78,0.00,,,0.00,weatherlink.com 1.10,2013-05-06 06:56:00,
2013-05-06 03:11:00,49.7,43.0,30.36,NE,37,0.0,4.0,79,0.00,,,0.00,weatherlink.com 1.10,2013-05-06 07:11:00,
2013-05-06 03:26:00,49.3,43.0,30.36,NE,53,1.0,6.0,80,0.00,,,0.00,weatherlink.com 1.10,2013-05-06 07:26:00,
2013-05-06 03:41:00,49.0,43.0,30.36,ENE,65,3.0,6.0,81,0.00,,,0.00,weatherlink.com 1.10,2013-05-06 07:41:00,
2013-05-06 03:56:00,49.1,44.0,30.36,ENE,74,3.0,6.0,81,0.00,,,0.00,weatherlink.com 1.10,2013-05-06 07:56:00,
2013-05-06 04:11:00,49.1,44.0,30.36,ENE,71,1.0,6.0,81,0.00,,,0.00,weatherlink.com 1.10,2013-05-06 08:11:00,
2013-05-06 04:26:00,49.0,44.0,30.36,ENE,66,0.0,4.0,82,0.00,,,0.00,weatherlink.com 1.10,2013-05-06 08:26:00,
2013-05-06 04:42:00,49.0,44.0,30.35,NE,35,0.0,4.0,82,0.00,,,0.00,weatherlink.com 1.10,2013-05-06 08:42:00,
2013-05-06 04:57:00,48.7,44.0,30.35,ENE,67,2.0,6.0,83,0.00,,,0.00,weatherlink.com 1.10,2013-05-06 08:57:00,
2013-05-06 05:12:00,48.8,44.0,30.35,NE,36,0.0,8.0,83,0.00,,,0.00,weatherlink.com 1.10,2013-05-06 09:12:00,
2013-05-06 05:27:00,48.5,44.0,30.35,North,355,1.0,8.0,84,0.00,,,0.00,weatherlink.com 1.10,2013-05-06 09:27:00,
2013-05-06 05:42:00,48.5,44.0,30.34,ENE,74,1.0,9.0,85,0.00,,,0.00,weatherlink.com 1.10,2013-05-06 09:42:00,
2013-05-06 05:57:00,48.6,44.0,30.35,NE,38,0.0,11.0,85,0.00,,,0.00,weatherlink.com 1.10,2013-05-06 09:57:00,
2013-05-06 06:12:00,48.6,45.0,30.35,NE,49,0.0,10.0,86,0.00,,,0.00,weatherlink.com 1.10,2013-05-06 10:12:00,
2013-05-06 06:27:00,48.7,45.0,30.35,ENE,57,1.0,8.0,86,0.00,,,0.00,weatherlink.com 1.10,2013-05-06 10:27:00,
2013-05-06 06:42:00,48.5,45.0,30.35,ENE,63,7.0,10.0,86,0.00,,,0.00,weatherlink.com 1.10,2013-05-06 10:42:00,
2013-05-06 06:57:00,48.4,45.0,30.36,NE,42,6.0,11.0,87,0.00,,,0.00,weatherlink.com 1.10,2013-05-06 10:57:00,
2013-05-06 07:12:00,48.2,45.0,30.35,East,83,4.0,10.0,88,0.00,,,0.00,weatherlink.com 1.10,2013-05-06 11:12:00,
2013-05-06 07:27:00,48.3,45.0,30.36,NE,42,0.0,9.0,89,0.00,,,0.00,weatherlink.com 1.10,2013-05-06 11:27:00,
2013-05-06 07:42:00,48.5,46.0,30.36,NE,36,5.0,8.0,89,0.00,,,0.00,weatherlink.com 1.10,2013-05-06 11:42:00,
2013-05-06 07:57:00,48.7,46.0,30.36,NNE,15,2.0,10.0,90,0.00,,,0.00,weatherlink.com 1.10,2013-05-06 11:57:00,
2013-05-06 08:44:00,49.1,47.0,30.36,NNE,28,8.0,11.0,91,0.00,,,0.00,weatherlink.com 1.10,2013-05-06 12:44:00,
2013-05-06 08:56:00,48.8,47.0,30.35,NE,43,8.0,12.0,92,0.00,,,0.00,weatherlink.com 1.10,2013-05-06 12:56:00,
2013-05-06 09:11:00,48.8,47.0,30.36,NE,43,4.0,13.0,92,0.00,,,0.00,weatherlink.com 1.10,2013-05-06 13:11:00,
2013-05-06 09:26:00,48.9,47.0,30.36,NNE,29,4.0,10.0,93,0.00,,,0.00,weatherlink.com 1.10,2013-05-06 13:26:00,
2013-05-06 09:41:00,48.7,47.0,30.36,North,5,9.0,12.0,93,0.00,,,0.00,weatherlink.com 1.10,2013-05-06 13:41:00,
2013-05-06 09:56:00,48.8,47.0,30.36,NNE,25,5.0,10.0,92,0.00,,,0.00,weatherlink.com 1.10,2013-05-06 13:56:00,
2013-05-06 10:11:00,49.0,47.0,30.36,NE,53,7.0,12.0,92,0.00,,,0.00,weatherlink.com 1.10,2013-05-06 14:11:00,
2013-05-06 10:26:00,49.1,47.0,30.36,NNE,28,7.0,14.0,91,0.00,,,0.00,weatherlink.com 1.10,2013-05-06 14:26:00,
2013-05-06 10:41:00,50.6,48.0,30.36,North,360,10.0,13.0,90,0.00,,,0.00,weatherlink.com 1.10,2013-05-06 14:41:00,
2013-05-06 10:56:00,51.6,48.0,30.36,North,9,8.0,14.0,87,0.00,,,0.00,weatherlink.com 1.10,2013-05-06 14:56:00,
2013-05-06 11:11:00,52.1,48.0,30.36,ENE,77,5.0,12.0,87,0.00,,,0.00,weatherlink.com 1.10,2013-05-06 15:11:00,
2013-05-06 11:26:00,52.6,49.0,30.36,NE,42,6.0,12.0,86,0.00,,,0.00,weatherlink.com 1.10,2013-05-06 15:26:00,
2013-05-06 11:41:00,53.0,48.0,30.35,NE,44,5.0,13.0,84,0.00,,,0.00,weatherlink.com 1.10,2013-05-06 15:41:00,
2013-05-06 11:57:00,53.9,50.0,30.34,NE,54,10.0,13.0,85,0.00,,,0.00,weatherlink.com 1.10,2013-05-06 15:57:00,
2013-05-06 12:12:00,54.2,49.0,30.34,NE,34,6.0,14.0,83,0.00,,,0.00,weatherlink.com 1.10,2013-05-06 16:12:00,
2013-05-06 12:27:00,54.0,50.0,30.34,ENE,62,5.0,10.0,85,0.00,,,0.00,weatherlink.com 1.10,2013-05-06 16:27:00,
2013-05-06 12:42:00,54.6,50.0,30.33,ENE,65,2.0,12.0,84,0.00,,,0.00,weatherlink.com 1.10,2013-05-06 16:42:00,
2013-05-06 12:57:00,55.0,51.0,30.33,ENE,58,8.0,12.0,86,0.00,,,0.00,weatherlink.com 1.10,2013-05-06 16:57:00,
2013-05-06 13:12:00,56.5,51.0,30.32,ENE,71,6.0,11.0,83,0.00,,,0.00,weatherlink.com 1.10,2013-05-06 17:12:00,
2013-05-06 13:27:00,57.1,52.0,30.32,East,80,13.0,15.0,82,0.00,,,0.00,weatherlink.com 1.10,2013-05-06 17:27:00,
2013-05-06 13:42:00,56.5,51.0,30.31,ENE,64,5.0,14.0,83,0.00,,,0.00,weatherlink.com 1.10,2013-05-06 17:42:00,
2013-05-06 13:57:00,57.1,52.0,30.31,East,82,9.0,13.0,83,0.00,,,0.00,weatherlink.com 1.10,2013-05-06 17:57:00,
2013-05-06 14:12:00,57.6,52.0,30.31,ENE,70,7.0,14.0,81,0.00,,,0.00,weatherlink.com 1.10,2013-05-06 18:12:00,
2013-05-06 14:27:00,57.5,52.0,30.30,NE,49,7.0,14.0,81,0.00,,,0.00,weatherlink.com 1.10,2013-05-06 18:27:00,
2013-05-06 14:42:00,57.4,52.0,30.30,North,11,1.0,13.0,81,0.00,,,0.00,weatherlink.com 1.10,2013-05-06 18:42:00,
2013-05-06 14:57:00,56.8,51.0,30.30,NE,46,7.0,12.0,82,0.00,,,0.00,weatherlink.com 1.10,2013-05-06 18:57:00,
2013-05-06 15:12:00,56.9,52.0,30.30,NNE,30,5.0,13.0,82,0.00,,,0.00,weatherlink.com 1.10,2013-05-06 19:12:00,
2013-05-06 15:27:00,56.1,52.0,30.29,NE,56,7.0,11.0,85,0.00,,,0.00,weatherlink.com 1.10,2013-05-06 19:27:00,
2013-05-06 15:42:00,55.8,52.0,30.29,ENE,67,5.0,13.0,86,0.00,,,0.00,weatherlink.com 1.10,2013-05-06 19:42:00,
2013-05-06 15:57:00,55.5,52.0,30.28,NE,54,4.0,14.0,87,0.00,,,0.00,weatherlink.com 1.10,2013-05-06 19:57:00,
2013-05-06 16:12:00,55.0,52.0,30.28,ENE,60,8.0,13.0,88,0.00,,,0.00,weatherlink.com 1.10,2013-05-06 20:12:00,
2013-05-06 16:27:00,54.8,52.0,30.28,NNE,32,2.0,12.0,89,0.00,,,0.00,weatherlink.com 1.10,2013-05-06 20:27:00,
2013-05-06 16:42:00,55.0,52.0,30.27,NNE,28,4.0,14.0,90,0.00,,,0.00,weatherlink.com 1.10,2013-05-06 20:42:00,
2013-05-06 16:57:00,54.8,52.0,30.27,NNE,26,9.0,14.0,91,0.00,,,0.00,weatherlink.com 1.10,2013-05-06 20:57:00,
2013-05-06 17:12:00,54.7,52.0,30.27,NNE,24,8.0,13.0,91,0.00,,,0.00,weatherlink.com 1.10,2013-05-06 21:12:00,
2013-05-06 17:27:00,54.9,52.0,30.27,NNE,32,5.0,14.0,91,0.00,,,0.00,weatherlink.com 1.10,2013-05-06 21:27:00,
2013-05-06 17:42:00,54.7,53.0,30.27,NE,39,7.0,13.0,92,0.00,,,0.00,weatherlink.com 1.10,2013-05-06 21:42:00,
2013-05-06 17:57:00,54.5,52.0,30.26,NNE,25,3.0,15.0,92,0.00,,,0.00,weatherlink.com 1.10,2013-05-06 21:57:00,
2013-05-06 18:12:00,54.4,53.0,30.26,NNE,29,15.0,15.0,93,0.00,,,0.00,weatherlink.com 1.10,2013-05-06 22:12:00,
2013-05-06 18:27:00,54.4,53.0,30.26,ENE,57,5.0,13.0,93,0.00,,,0.00,weatherlink.com 1.10,2013-05-06 22:27:00,
2013-05-06 18:42:00,54.5,53.0,30.26,NE,36,8.0,11.0,94,0.00,,,0.00,weatherlink.com 1.10,2013-05-06 22:42:00,
2013-05-06 18:57:00,54.6,53.0,30.26,NE,44,5.0,11.0,94,0.00,,,0.00,weatherlink.com 1.10,2013-05-06 22:57:00,
2013-05-06 19:12:00,54.6,53.0,30.26,NE,45,4.0,13.0,94,0.00,,,0.00,weatherlink.com 1.10,2013-05-06 23:12:00,
2013-05-06 19:27:00,54.6,53.0,30.26,ENE,73,6.0,11.0,94,0.00,,,0.00,weatherlink.com 1.10,2013-05-06 23:27:00,
2013-05-06 19:42:00,54.7,53.0,30.26,NE,56,3.0,8.0,94,0.00,,,0.00,weatherlink.com 1.10,2013-05-06 23:42:00,
2013-05-06 19:57:00,54.8,53.0,30.27,NE,38,6.0,10.0,94,0.00,,,0.00,weatherlink.com 1.10,2013-05-06 23:57:00,
2013-05-06 20:12:00,54.8,53.0,30.26,ENE,67,2.0,12.0,95,0.01,,,0.01,weatherlink.com 1.10,2013-05-07 00:12:00,
2013-05-06 20:28:00,55.0,54.0,30.26,NNE,18,7.0,11.0,95,0.01,,,0.01,weatherlink.com 1.10,2013-05-07 00:28:00,
2013-05-06 20:43:00,55.4,54.0,30.26,NE,48,1.0,12.0,94,0.01,,,0.01,weatherlink.com 1.10,2013-05-07 00:43:00,
2013-05-06 20:58:00,55.6,54.0,30.26,ENE,59,5.0,10.0,94,0.01,,,0.01,weatherlink.com 1.10,2013-05-07 00:58:00,
2013-05-06 21:13:00,55.9,54.0,30.26,NE,45,0.0,11.0,94,0.00,,,0.01,weatherlink.com 1.10,2013-05-07 01:13:00,
2013-05-06 21:28:00,55.9,54.0,30.26,NNE,31,5.0,11.0,94,0.03,,,0.04,weatherlink.com 1.10,2013-05-07 01:28:00,
2013-05-06 21:43:00,55.9,55.0,30.26,North,350,3.0,9.0,95,0.06,,,0.07,weatherlink.com 1.10,2013-05-07 01:43:00,
2013-05-06 21:58:00,55.9,55.0,30.27,NE,40,6.0,9.0,95,0.08,,,0.09,weatherlink.com 1.10,2013-05-07 01:58:00,
2013-05-06 22:13:00,55.9,55.0,30.26,ENE,74,8.0,10.0,95,0.12,,,0.13,weatherlink.com 1.10,2013-05-07 02:13:00,
2013-05-06 22:28:00,55.9,55.0,30.26,NE,53,6.0,12.0,95,0.10,,,0.14,weatherlink.com 1.10,2013-05-07 02:28:00,
2013-05-06 22:43:00,55.9,55.0,30.25,NE,43,4.0,9.0,96,0.07,,,0.14,weatherlink.com 1.10,2013-05-07 02:43:00,
2013-05-06 22:58:00,56.1,55.0,30.25,ENE,61,6.0,7.0,96,0.06,,,0.15,weatherlink.com 1.10,2013-05-07 02:58:00,
2013-05-06 23:13:00,57.7,55.0,30.24,NE,44,2.0,20.0,92,0.03,,,0.16,weatherlink.com 1.10,2013-05-07 03:13:00,
2013-05-06 23:28:00,58.5,55.0,30.24,ENE,74,11.0,16.0,89,0.04,,,0.18,weatherlink.com 1.10,2013-05-07 03:28:00,
2013-05-06 23:43:00,58.9,55.0,30.24,East,93,6.0,18.0,88,0.04,,,0.18,weatherlink.com 1.10,2013-05-07 03:43:00,
2013-05-06 23:58:00,58.5,55.0,30.23,East,89,6.0,15.0,88,0.05,,,0.20,weatherlink.com 1.10,2013-05-07 03:58:00,